Flight Track Log - Related Links

Times and Time Zones

All times are in EDT time to prevent confusion due to time zone crossing. See the UAL247 flight status page for this flight to view local times or setup timezone preferences in your user account.

Time Position Orientation Groundspeed Altitude Reporting Facility
EDT Latitude Longitude Course Direction KTS MPH feet Rate Location/Type
Sat 12:13:30 PM 47.4286 -122.3108 105° East 160 184 1,600  Level Seattle Center
Sat 12:13:42 PM 47.4228 -122.3114 184° South 167 192 1,800 1,315 Climbing Seattle Center
Sat 12:14:43 PM 47.3692 -122.3097 179° South 193 222 3,200 1,759 Climbing Seattle Center
Sat 12:15:38 PM 47.3119 -122.2800 161° South 268 308 5,200 2,262 Climbing Seattle Center
Sat 12:15:44 PM 47.3072 -122.2658 116° Southeast 257 296 5,500 2,776 Climbing Seattle Center
Sat 12:16:00 PM 47.4491 -121.7780 90° East  Level Estimated
Sat 12:16:45 PM 47.3111 -122.1561 87° East 278 320 8,300  Level Seattle Center
Sat 12:17:00 PM 47.4483 -121.6001 104° East  Level Estimated
Sat 12:17:39 PM 47.3608 -122.0797 46° Northeast 284 327 9,000  Level Seattle Center
Sat 12:17:46 PM 47.3653 -122.0756 32° Northeast 280 322 9,000 1,324 Level Seattle Center
Sat 12:18:00 PM 47.4162 -121.4286 105° East  Level FlightAware Approximate
Sat 12:18:47 PM 47.4267 -121.9897 43° Northeast 285 328 10,500  Level Seattle Center
Sat 12:19:49 PM 47.4306 -121.8508 88° East 358 412 11,600 1,610 Climbing Seattle Center
Sat 12:20:50 PM 47.4256 -121.6950 93° East 382 440 13,800 2,213 Climbing Seattle Center
Sat 12:21:51 PM 47.3833 -121.5436 112° Southeast 396 456 16,100 1,967 Climbing Seattle Center
Sat 12:22:52 PM 47.3406 -121.3733 110° East 411 473 17,800 1,426 Climbing Seattle Center
Sat 12:23:53 PM 47.3044 -121.2386 112° Southeast 420 483 19,000 1,623 Climbing Seattle Center
Sat 12:24:54 PM 47.2756 -121.0339 102° East 429 494 21,100 1,756 Climbing Seattle Center
Sat 12:25:56 PM 47.2611 -120.8558 97° East 438 504 22,600 1,171 Climbing Seattle Center
Sat 12:26:57 PM 47.2500 -120.6961 96° East 445 512 23,500 885 Climbing Seattle Center
Sat 12:27:58 PM 47.2331 -120.5100 98° East 459 528 24,400 1,131 Climbing Seattle Center
Sat 12:28:59 PM 47.2133 -120.2775 97° East 476 548 25,800 1,131 Climbing Seattle Center
Sat 12:30:00 PM 47.1981 -120.0828 97° East 481 554 26,700 885 Climbing Seattle Center
Sat 12:31:01 PM 47.1808 -119.8839 97° East 489 563 27,600 885 Climbing Seattle Center
Sat 12:32:02 PM 47.1622 -119.6831 98° East 496 571 28,500 976 Climbing Seattle Center
Sat 12:33:04 PM 47.1431 -119.4806 98° East 502 578 29,600 1,122 Climbing Seattle Center
Sat 12:34:05 PM 47.1247 -119.2794 98° East 499 574 30,800 1,131 Climbing Seattle Center
Sat 12:35:06 PM 47.1072 -119.0825 97° East 493 567 31,900 984 Climbing Seattle Center
Sat 12:36:07 PM 47.0878 -118.8836 98° East 494 568 32,800 984 Climbing Seattle Center
Sat 12:37:08 PM 47.0681 -118.6856 98° East 493 567 33,900 1,033 Climbing Seattle Center
Sat 12:38:09 PM 47.0475 -118.4897 99° East 492 566 34,900 492 Climbing Seattle Center
Sat 12:39:10 PM 47.0250 -118.2614 98° East 478 550 34,900  Level Seattle Center
Sat 12:40:11 PM 47.0089 -118.0736 97° East 470 541 34,900 49 Level Seattle Center
Sat 12:41:13 PM 46.9894 -117.8864 99° East 469 540 35,000  Climbing Seattle Center
Sat 12:42:14 PM 46.9731 -117.6967 97° East 471 542 34,900  Descending Seattle Center
Sat 12:43:15 PM 46.9539 -117.5069 98° East 475 547 35,000 49 Climbing Seattle Center
Sat 12:44:16 PM 46.9375 -117.3189 97° East 472 543 35,000  Level Seattle Center
Sat 12:45:17 PM 46.9203 -117.1333 98° East 467 537 35,000 -49 Level Seattle Center
Sat 12:46:18 PM 46.9022 -116.9500 98° East 463 533 34,900 -49 Descending Seattle Center
Sat 12:47:19 PM 46.8836 -116.7675 98° East 459 528 34,900  Level Seattle Center
Sat 12:48:20 PM 46.8617 -116.5456 98° East 463 533 34,900  Level Seattle Center
Sat 12:49:21 PM 46.8439 -116.3611 98° East 461 531 34,900 49 Level Seattle Center
Sat 12:50:22 PM 46.8239 -116.1744 99° East 467 537 35,000  Climbing Seattle Center
Sat 12:51:23 PM 46.8042 -115.9869 99° East 469 540 34,900  Descending Seattle Center
Sat 12:52:24 PM 46.7844 -115.7969 99° East 475 547 35,000 49 Climbing Seattle Center
Sat 12:53:25 PM 46.7633 -115.6078 99° East 474 545 35,000 -49 Level Seattle Center
Sat 12:54:26 PM 46.7428 -115.4186 99° East 476 548 34,900  Descending Seattle Center
Sat 12:55:27 PM 46.7186 -115.2061 99° East 476 548 35,000 55 Climbing Seattle Center
Sat 12:56:15 PM 46.7017 -115.0550 99° East 475 547 35,000 -55 Level Salt Lake Center
Sat 12:57:17 PM 46.6794 -114.8683 100° East 471 542 34,900 -49 Descending Salt Lake Center
Sat 12:58:18 PM 46.6578 -114.6811 100° East 471 542 34,900 49 Level Salt Lake Center
Sat 12:59:20 PM 46.6358 -114.4947 100° East 471 542 35,000  Climbing Salt Lake Center
Sat 01:00:22 PM 46.6136 -114.3083 100° East 472 543 34,900  Descending Salt Lake Center
Sat 01:01:24 PM 46.5900 -114.1203 100° East 475 547 35,000 48 Climbing Salt Lake Center
Sat 01:02:26 PM 46.5761 -113.8908 95° East 479 551 35,000  Level Salt Lake Center
Sat 01:03:27 PM 46.5756 -113.6936 90° East 488 562 35,000 -49 Level Salt Lake Center
Sat 01:04:29 PM 46.5753 -113.5008 90° East 482 555 34,900  Descending Salt Lake Center
Sat 01:05:31 PM 46.5739 -113.3044 91° East 486 559 35,000 48 Climbing Salt Lake Center
Sat 01:06:33 PM 46.5725 -113.0972 90° East 482 555 35,000 -48 Level Salt Lake Center
Sat 01:07:35 PM 46.5706 -112.9039 91° East 482 555 34,900  Descending Salt Lake Center
Sat 01:08:36 PM 46.5681 -112.7128 91° East 476 548 35,000  Climbing Salt Lake Center
Sat 01:09:38 PM 46.5658 -112.5217 91° East 475 547 34,900 -48 Descending Salt Lake Center
Sat 01:10:40 PM 46.5614 -112.2917 92° East 475 547 34,900  Level Salt Lake Center
Sat 01:11:42 PM 46.5581 -112.1003 91° East 477 549 34,900 48 Level Salt Lake Center
Sat 01:12:44 PM 46.5547 -111.9097 91° East 475 547 35,000  Climbing Salt Lake Center
Sat 01:13:46 PM 46.5506 -111.7172 92° East 479 551 34,900 -49 Descending Salt Lake Center
Sat 01:14:47 PM 46.5461 -111.5264 92° East 478 550 34,900 49 Level Salt Lake Center
Sat 01:15:49 PM 46.5911 -111.3358 71° East 513 590 35,000 48 Climbing Salt Lake Center
Sat 01:16:51 PM 46.7003 -111.1383 51° Northeast 525 604 35,000 -48 Level Salt Lake Center
Sat 01:17:53 PM 46.7908 -110.9747 51° Northeast 523 602 34,900 -48 Descending Salt Lake Center
Sat 01:18:55 PM 46.8564 -110.7936 62° Northeast 509 586 34,900  Level Salt Lake Center
Sat 01:19:56 PM 46.9069 -110.6025 69° East 508 585 34,900 49 Level Salt Lake Center
Sat 01:20:58 PM 46.9564 -110.4114 69° East 507 583 35,000 48 Climbing Salt Lake Center
Sat 01:22:00 PM 47.0047 -110.2214 69° East 506 582 35,000 -48 Level Salt Lake Center
Sat 01:23:02 PM 47.0642 -109.9908 69° East 507 583 34,900  Descending Salt Lake Center
Sat 01:24:04 PM 47.1139 -109.7981 69° East 508 585 35,000 49 Climbing Salt Lake Center
Sat 01:25:05 PM 47.1631 -109.6064 69° East 506 582 35,000  Level Salt Lake Center
Sat 01:26:07 PM 47.2111 -109.4186 69° East 499 574 35,000 -48 Level Salt Lake Center
Sat 01:27:09 PM 47.2572 -109.2306 70° East 491 565 34,900  Descending Salt Lake Center
Sat 01:28:11 PM 47.2833 -109.0369 79° East 494 568 35,000  Climbing Salt Lake Center
Sat 01:29:13 PM 47.2517 -108.8136 102° East 466 536 34,900 -49 Descending Salt Lake Center
Sat 01:30:14 PM 47.2231 -108.6286 103° East 467 537 34,900 49 Level Salt Lake Center
Sat 01:31:16 PM 47.1956 -108.4297 101° East 467 537 35,000 48 Climbing Salt Lake Center
Sat 01:32:18 PM 47.1672 -108.2433 103° East 469 540 35,000  Level Salt Lake Center
Sat 01:33:20 PM 47.1375 -108.0539 103° East 475 547 35,000  Level Salt Lake Center
Sat 01:34:22 PM 47.1086 -107.8664 103° East 473 544 35,000  Level Salt Lake Center
Sat 01:35:24 PM 47.0783 -107.6792 103° East 473 544 35,000  Level Salt Lake Center
Sat 01:36:26 PM 47.0483 -107.4911 103° East 475 547 35,000  Level Salt Lake Center
Sat 01:37:28 PM 47.0119 -107.2694 103° East 469 540 35,000  Level Salt Lake Center
Sat 01:38:30 PM 46.9828 -107.0903 103° East 458 527 35,000  Level Salt Lake Center
Sat 01:39:32 PM 46.9533 -106.9114 103° East 455 524 35,000  Level Salt Lake Center
Sat 01:40:34 PM 46.9222 -106.7317 104° East 456 525 35,000  Level Salt Lake Center
Sat 01:41:36 PM 46.8925 -106.5542 104° East 453 521 35,000  Level Salt Lake Center
Sat 01:42:38 PM 46.8464 -106.3847 112° Southeast 455 524 35,000  Level Salt Lake Center
Sat 01:43:40 PM 46.7625 -106.2067 124° Southeast 450 518 35,000  Level Salt Lake Center
Sat 01:44:42 PM 46.6925 -106.0581 124° Southeast 446 513 35,000  Level Salt Lake Center
Sat 01:45:44 PM 46.6211 -105.9108 125° Southeast 448 516 35,000  Level Salt Lake Center
Sat 01:46:46 PM 46.5469 -105.7644 126° Southeast 449 517 35,000  Level Salt Lake Center
Sat 01:47:48 PM 46.4356 -105.6917 156° South 451 519 35,000  Level Salt Lake Center
Sat 01:48:50 PM 46.3186 -105.6589 169° South 436 502 35,000  Level Salt Lake Center
Sat 01:49:52 PM 46.1772 -105.6122 167° South 434 499 35,000  Level Salt Lake Center
Sat 01:50:54 PM 46.0617 -105.5764 168° South 430 495 35,000  Level Salt Lake Center
Sat 01:51:56 PM 45.9464 -105.5389 167° South 426 490 35,000  Level Salt Lake Center
Sat 01:52:58 PM 45.8525 -105.4383 143° Southeast 434 499 35,000  Level Salt Lake Center
Sat 01:54:00 PM 45.8189 -105.2658 106° East 462 532 35,000  Level Salt Lake Center
Sat 01:55:02 PM 45.7947 -105.0764 100° East 482 555 35,000  Level Salt Lake Center
Sat 01:56:04 PM 45.7664 -104.8528 100° East 479 551 35,000  Level Salt Lake Center
Sat 01:57:06 PM 45.7414 -104.6661 101° East 478 550 35,000  Level Salt Lake Center
Sat 01:58:08 PM 45.7164 -104.4825 101° East 474 545 35,000  Level Salt Lake Center
Sat 01:59:10 PM 45.6917 -104.3036 101° East 466 536 35,000  Level Salt Lake Center
Sat 02:00:12 PM 45.6669 -104.1250 101° East 462 532 35,000 -48 Level Salt Lake Center
Sat 02:01:14 PM 45.6433 -103.9481 101° East 460 529 34,900  Descending Salt Lake Center
Sat 02:02:16 PM 45.6178 -103.7683 101° East 461 531 35,000 48 Climbing Salt Lake Center
Sat 02:03:18 PM 45.5869 -103.5525 101° East 463 533 35,000 -48 Level Salt Lake Center
Sat 02:04:20 PM 45.5622 -103.3761 101° East 460 529 34,900 -48 Descending Salt Lake Center
Sat 02:05:22 PM 45.5356 -103.1983 102° East 459 528 34,900  Level Salt Lake Center
Sat 02:06:24 PM 45.5094 -103.0178 102° East 462 532 34,900 48 Level Salt Lake Center
Sat 02:07:26 PM 45.4819 -102.8386 102° East 464 534 35,000 49 Climbing Salt Lake Center
Sat 02:08:27 PM 45.4539 -102.6506 102° East 468 539 35,000  Level Minneapolis Center
Sat 02:09:28 PM 45.4264 -102.4717 102° East 465 535 35,000  Level Minneapolis Center
Sat 02:10:30 PM 45.3983 -102.2878 102° East 471 542 35,000  Level Minneapolis Center
Sat 02:11:32 PM 45.3686 -102.1053 103° East 475 547 35,000  Level Minneapolis Center
Sat 02:12:34 PM 45.3333 -101.8831 103° East 479 551 35,000  Level Minneapolis Center
Sat 02:13:35 PM 45.3042 -101.6969 102° East 482 555 35,000  Level Minneapolis Center
Sat 02:14:37 PM 45.2736 -101.5111 103° East 483 556 35,000  Level Minneapolis Center
Sat 02:15:39 PM 45.2439 -101.3264 103° East 482 555 35,000  Level Minneapolis Center
Sat 02:16:40 PM 45.2067 -101.1442 106° East 483 556 35,000  Level Minneapolis Center
Sat 02:17:42 PM 45.1117 -101.0194 137° Southeast 471 542 35,000  Level Minneapolis Center
Sat 02:18:43 PM 45.0072 -100.9150 145° Southeast 466 536 35,000  Level Minneapolis Center
Sat 02:19:45 PM 44.8828 -100.7886 144° Southeast 463 533 35,000  Level Minneapolis Center
Sat 02:20:47 PM 44.7800 -100.6839 144° Southeast 460 529 35,000  Level Minneapolis Center
Sat 02:21:49 PM 44.7019 -100.5439 128° Southeast 468 539 35,000  Level Minneapolis Center
Sat 02:22:51 PM 44.6775 -100.3636 101° East 472 543 35,000  Level Minneapolis Center
Sat 02:24:05 PM 44.6525 -100.1839 101° East 474 545 35,000  Level Minneapolis Center
Sat 02:25:07 PM 44.6206 -99.9339 100° East 470 541 35,000  Level Minneapolis Center
Sat 02:26:09 PM 44.5964 -99.7558 101° East 469 540 35,000  Level Minneapolis Center
Sat 02:27:10 PM 44.5731 -99.5786 100° East 467 537 35,000  Level Minneapolis Center
Sat 02:28:12 PM 44.5483 -99.3986 101° East 469 540 35,000  Level Minneapolis Center
Sat 02:29:14 PM 44.5233 -99.2186 101° East 472 543 35,000  Level Minneapolis Center
Sat 02:30:16 PM 44.4936 -99.0039 101° East 471 542 35,000  Level Minneapolis Center
Sat 02:31:18 PM 44.4664 -98.8256 102° East 471 542 35,000  Level Minneapolis Center
Sat 02:32:20 PM 44.4311 -98.6467 105° East 474 545 35,000  Level Minneapolis Center
Sat 02:33:21 PM 44.4047 -98.4653 101° East 477 549 35,000  Level Minneapolis Center
Sat 02:34:23 PM 44.3775 -98.2858 102° East 477 549 35,000  Level Minneapolis Center
Sat 02:35:25 PM 44.3483 -98.1011 102° East 481 554 35,000  Level Minneapolis Center
Sat 02:36:27 PM 44.3217 -97.9169 101° East 485 558 35,000  Level Minneapolis Center
Sat 02:37:29 PM 44.2883 -97.6967 102° East 483 556 35,000  Level Minneapolis Center
Sat 02:38:31 PM 44.2617 -97.5125 101° East 485 558 35,000  Level Minneapolis Center
Sat 02:39:32 PM 44.2314 -97.3289 103° East 487 560 35,000  Level Minneapolis Center
Sat 02:40:47 PM 44.1958 -97.1100 103° East 485 558 35,000  Level Minneapolis Center
Sat 02:41:49 PM 44.1672 -96.9269 102° East 486 559 35,000  Level Minneapolis Center
Sat 02:42:50 PM 44.1378 -96.7456 103° East 483 556 35,000  Level Minneapolis Center
Sat 02:43:52 PM 44.1019 -96.5269 103° East 486 559 35,000  Level Minneapolis Center
Sat 02:44:54 PM 44.0717 -96.3456 103° East 489 563 35,000  Level Minneapolis Center
Sat 02:45:56 PM 44.0422 -96.1647 103° East 494 568 35,000  Level Minneapolis Center
Sat 02:46:58 PM 44.0133 -95.9847 103° East 489 563 35,000  Level Minneapolis Center
Sat 02:48:00 PM 43.9764 -95.7675 103° East 487 560 35,000  Level Minneapolis Center
Sat 02:49:02 PM 43.9450 -95.5861 103° East 487 560 35,000  Level Minneapolis Center
Sat 02:50:04 PM 43.9133 -95.4044 104° East 487 560 35,000  Level Minneapolis Center
Sat 02:51:06 PM 43.8803 -95.2217 104° East 490 564 35,000  Level Minneapolis Center
Sat 02:52:07 PM 43.8472 -95.0403 104° East 489 563 35,000  Level Minneapolis Center
Sat 02:53:09 PM 43.8150 -94.8597 104° East 485 558 35,000  Level Minneapolis Center
Sat 02:54:11 PM 43.7761 -94.6417 104° East 487 560 35,000  Level Minneapolis Center
Sat 02:55:13 PM 43.7422 -94.4608 104° East 487 560 35,000  Level Minneapolis Center
Sat 02:56:14 PM 43.7086 -94.2808 104° East 485 558 35,000  Level Minneapolis Center
Sat 02:57:16 PM 43.6728 -94.0947 105° East 483 556 35,000  Level Minneapolis Center
Sat 02:58:18 PM 43.6406 -93.9183 104° East 480 552 35,000  Level Minneapolis Center
Sat 02:59:19 PM 43.6064 -93.7433 105° East 476 548 35,000  Level Minneapolis Center
Sat 03:00:21 PM 43.5722 -93.5672 105° East 477 549 35,000  Level Minneapolis Center
Sat 03:01:23 PM 43.5383 -93.3897 105° East 481 554 35,000  Level Minneapolis Center
Sat 03:02:24 PM 43.5019 -93.2125 106° East 483 556 35,000  Level Minneapolis Center
Sat 03:03:26 PM 43.4608 -92.9997 105° East 484 557 35,000  Level Minneapolis Center
Sat 03:04:28 PM 43.4256 -92.8242 105° East 482 555 35,000  Level Minneapolis Center
Sat 03:05:29 PM 43.3900 -92.6431 105° East 490 564 35,000 -390 Level Minneapolis Center
Sat 03:06:31 PM 43.3544 -92.4669 105° East 484 557 34,200 -871 Descending Minneapolis Center
Sat 03:07:33 PM 43.3164 -92.2944 107° East 482 555 33,200 -581 Descending Chicago Center
Sat 03:08:35 PM 43.2817 -92.1203 105° East 478 550 33,000 -98 Descending Chicago Center
Sat 03:09:36 PM 43.2389 -91.9089 105° East 476 548 33,000  Level Minneapolis Center
Sat 03:10:38 PM 43.2019 -91.7328 106° East 479 551 33,000 -400 Level Minneapolis Center
Sat 03:11:51 PM 43.1553 -91.5586 110° East 483 556 32,100 -871 Descending Minneapolis Center
Sat 03:12:42 PM 43.0928 -91.3939 117° Southeast 489 563 31,200 -1,168 Descending Chicago Center
Sat 03:13:44 PM 43.0347 -91.2250 115° Southeast 489 563 29,900 -1,122 Descending Chicago Center
Sat 03:14:45 PM 42.9761 -91.0525 115° Southeast 501 577 28,900 -829 Descending Chicago Center
Sat 03:15:47 PM 42.9169 -90.8839 116° Southeast 497 572 28,200 -774 Descending Chicago Center
Sat 03:16:49 PM 42.8456 -90.6847 116° Southeast 492 566 27,300 -726 Descending Chicago Center
Sat 03:17:51 PM 42.7881 -90.5200 115° Southeast 486 559 26,700 -629 Descending Chicago Center
Sat 03:18:53 PM 42.7289 -90.3581 116° Southeast 482 555 26,000 -683 Descending Chicago Center
Sat 03:19:54 PM 42.6981 -90.1858 104° East 473 544 25,300 -732 Descending Chicago Center
Sat 03:20:56 PM 42.6728 -90.0158 101° East 466 536 24,500 -1,258 Descending Chicago Center
Sat 03:21:58 PM 42.6428 -89.8150 101° East 458 527 22,700 -1,597 Descending Chicago Center
Sat 03:23:00 PM 42.6181 -89.6483 101° East 455 524 21,200 -1,366 Descending Chicago Center
Sat 03:24:01 PM 42.5944 -89.4869 101° East 444 511 19,900 -1,171 Descending Chicago Center
Sat 03:25:03 PM 42.5686 -89.3300 103° East 432 497 18,800 -1,597 Descending Chicago Center
Sat 03:26:05 PM 42.5439 -89.1558 101° East 428 493 16,600 -1,984 Descending Chicago Center
Sat 03:27:07 PM 42.5186 -89.0089 103° East 405 466 14,700 -1,707 Descending Chicago Center
Sat 03:28:08 PM 42.4864 -88.8653 107° East 404 465 13,100 -1,610 Descending Chicago Center
Sat 03:29:10 PM 42.4442 -88.7281 113° Southeast 398 458 11,400 -1,258 Descending Chicago Center
Sat 03:30:12 PM 42.4033 -88.5933 112° Southeast 390 449 10,500 -683 Descending Chicago Center
Sat 03:31:13 PM 42.3539 -88.4311 112° Southeast 389 448 10,000 -244 Descending Chicago Center
Sat 03:32:15 PM 42.2933 -88.3117 124° Southeast 391 450 10,000 -48 Level Chicago Center
Sat 03:33:17 PM 42.2311 -88.2067 129° Southeast 369 425 9,900 -532 Descending Chicago Center
Sat 03:34:19 PM 42.1717 -88.1178 132° Southeast 334 384 8,900 -976 Descending Chicago Center
Sat 03:35:20 PM 42.1072 -88.0475 141° Southeast 315 362 7,900 -927 Descending Chicago Center
Sat 03:36:22 PM 42.0919 -87.9403 101° East 306 352 7,000 -435 Descending Chicago Center
Sat 03:37:24 PM 42.0919 -87.8367 90° East 292 336 7,000 -537 Level Chicago Center
Sat 03:38:25 PM 42.0819 -87.7275 97° East 266 306 5,900 -1,136 Descending Chicago Center
Sat 03:39:36 PM 42.0333 -87.6667 137° Southeast 240 276 4,500 -905 Descending Chicago TRACON
Sat 03:40:31 PM 41.9833 -87.7000 206° Southwest 193 222 4,000 -1,043 Descending Chicago TRACON
Sat 03:41:31 PM 41.9833 -87.7667 270° West 174 200 2,500 -1,200 Descending Chicago TRACON
Sat 03:42:31 PM 41.9833 -87.8167 270° West 147 169 1,600 -800 Descending Chicago TRACON
Sat 03:43:31 PM 41.9833 -87.8667 270° West 138 159 900 -700 Descending Chicago TRACON

Login

Don't have an account? Register now (free) for customized features, flight alerts, and more!